createdAt,value
2018-11-25T00:16:41.611Z,72.70
2018-11-25T00:19:18.283Z,72.60
2018-11-25T00:21:49.372Z,72.60
2018-11-25T00:24:23.756Z,72.60
2018-11-25T00:27:02.476Z,72.20
2018-11-25T00:29:32.190Z,72.20
2018-11-25T00:35:37.664Z,72.20
2018-11-25T00:53:51.261Z,71.90
2018-11-25T00:57:10.713Z,72.00
2018-11-25T01:05:07.449Z,72.20
2018-11-25T01:08:48.776Z,72.10
2018-11-25T01:25:59.079Z,70.80
2018-11-25T01:28:52.412Z,65.10
2018-11-25T01:37:48.304Z,64.00
2018-11-25T01:40:36.267Z,64.90
2018-11-25T05:31:20.778Z,63.30
2018-11-25T05:33:50.701Z,63.80
2018-11-25T05:36:19.997Z,64.10
2018-11-25T05:38:49.280Z,64.40
2018-11-25T05:41:40.238Z,64.50
2018-11-25T05:44:10.357Z,64.30
2018-11-25T05:49:43.664Z,63.80
2018-11-25T05:52:13.068Z,63.90
2018-11-25T05:54:42.388Z,64.80
2018-11-25T05:57:23.521Z,63.90
2018-11-25T06:00:04.210Z,63.10
2018-11-25T06:02:33.463Z,62.90
2018-11-25T06:05:20.556Z,63.80
2018-11-25T06:07:49.889Z,64.30
2018-11-25T06:10:42.454Z,64.50
2018-11-25T06:13:10.481Z,64.50
2018-11-25T06:15:52.605Z,64.60
2018-11-25T06:18:21.897Z,64.70
2018-11-25T06:20:51.989Z,64.80
2018-11-25T06:29:27.505Z,64.80
2018-11-25T06:40:59.242Z,65.10
2018-11-25T06:43:28.598Z,65.50
2018-11-25T06:48:58.891Z,65.90
2018-11-25T06:51:28.182Z,65.60
2018-11-25T06:53:57.504Z,65.50
2018-11-25T06:56:27.473Z,65.60
2018-11-25T06:58:56.286Z,65.80
2018-11-25T07:01:25.633Z,66.00
2018-11-25T07:04:06.270Z,65.90
2018-11-25T07:06:35.545Z,66.20
2018-11-25T07:09:07.498Z,66.40
2018-11-25T07:11:36.828Z,66.50
2018-11-25T07:14:17.653Z,66.40
2018-11-25T07:16:48.698Z,66.30
2018-11-25T07:19:19.782Z,66.60
2018-11-25T07:21:52.775Z,66.60
2018-11-25T07:24:22.041Z,66.80
2018-11-25T07:27:02.682Z,66.90
2018-11-25T07:32:12.650Z,66.90
2018-11-25T07:35:01.891Z,67.40
2018-11-25T07:37:31.181Z,67.60
2018-11-25T07:46:21.863Z,70.00
2018-11-25T07:48:52.316Z,70.60
2018-11-25T08:45:10.412Z,71.10
2018-11-25T08:47:41.132Z,71.20
2018-11-25T08:50:16.863Z,71.20
2018-11-25T08:52:47.333Z,71.30
2018-11-25T08:55:17.887Z,71.90
2018-11-25T08:57:47.263Z,72.20
2018-11-25T09:00:21.409Z,72.40
2018-11-25T09:02:52.121Z,72.90
2018-11-25T09:05:21.529Z,73.90
2018-11-25T09:07:50.887Z,73.70
2018-11-25T09:10:21.249Z,74.00
2018-11-25T09:12:55.838Z,74.20
2018-11-25T09:15:25.219Z,74.30
2018-11-25T09:17:56.005Z,74.30
2018-11-25T09:20:35.166Z,74.80
2018-11-25T09:23:06.750Z,74.90
2018-11-25T09:25:36.139Z,75.40
2018-11-25T09:28:05.620Z,75.20
2018-11-25T09:30:35.197Z,75.40
2018-11-25T09:33:04.623Z,75.20
2018-11-25T09:35:35.374Z,75.50
2018-11-25T09:38:04.778Z,75.50
2018-11-25T09:40:34.170Z,75.60
2018-11-25T09:43:03.614Z,75.70
2018-11-25T09:45:32.960Z,75.40
2018-11-25T09:48:02.309Z,75.40
2018-11-25T09:50:31.552Z,75.50
2018-11-25T09:53:00.913Z,75.70
2018-11-25T09:55:30.310Z,75.80
2018-11-25T09:58:00.930Z,76.00
2018-11-25T10:00:32.667Z,76.10
2018-11-25T10:03:02.358Z,76.20
2018-11-25T10:05:31.818Z,76.50
2018-11-25T10:08:01.327Z,76.40
2018-11-25T10:10:30.807Z,76.40
2018-11-25T10:13:00.445Z,76.30
2018-11-25T10:15:30.446Z,76.30
2018-11-25T10:18:00.294Z,76.40
2018-11-25T10:20:30.793Z,76.80
2018-11-25T10:23:01.242Z,77.00
2018-11-25T10:25:30.786Z,76.90
2018-11-25T10:28:00.276Z,76.90
2018-11-25T10:30:31.877Z,76.70
2018-11-25T10:33:03.660Z,76.50
2018-11-25T10:35:33.944Z,76.60
2018-11-25T10:38:03.558Z,76.80
2018-11-25T10:40:33.071Z,76.90
2018-11-25T10:43:02.729Z,77.30
2018-11-25T10:45:34.261Z,77.70
2018-11-25T10:48:04.629Z,78.00
2018-11-25T10:50:34.442Z,77.90
2018-11-25T10:53:04.353Z,77.90
2018-11-25T10:55:34.127Z,78.10
2018-11-25T10:58:04.024Z,78.60
2018-11-25T11:00:40.182Z,79.10
2018-11-25T11:03:15.762Z,79.40
2018-11-25T11:05:50.500Z,79.70
2018-11-25T11:08:20.545Z,79.70
2018-11-25T11:10:50.010Z,80.30
2018-11-25T11:13:19.371Z,81.30
2018-11-25T11:15:48.656Z,81.10
2018-11-25T11:18:17.970Z,81.30
2018-11-25T11:20:47.305Z,81.60
2018-11-25T11:23:16.637Z,82.10
2018-11-25T11:25:45.951Z,82.80
2018-11-25T11:28:15.314Z,83.40
2018-11-25T11:30:44.993Z,83.80
2018-11-25T11:33:14.313Z,84.00
2018-11-25T11:35:43.562Z,83.40
2018-11-25T11:38:13.019Z,83.60
2018-11-25T11:40:42.529Z,84.00
2018-11-25T11:43:11.934Z,85.00
2018-11-25T11:45:41.375Z,85.60
2018-11-25T11:48:10.683Z,86.50
2018-11-25T11:50:40.025Z,86.90
2018-11-25T11:53:09.524Z,87.50
2018-11-25T11:55:39.034Z,87.10
2018-11-25T11:58:08.386Z,87.40
2018-11-25T12:00:37.750Z,87.00
2018-11-25T12:03:07.219Z,87.60
2018-11-25T12:05:36.615Z,87.70
2018-11-25T12:08:06.297Z,87.80
2018-11-25T12:10:35.664Z,87.80
2018-11-25T12:13:05.616Z,87.40
2018-11-25T12:15:34.897Z,87.60
2018-11-25T12:18:04.299Z,88.60
2018-11-25T12:20:33.639Z,88.90
2018-11-25T12:23:03.054Z,88.80
2018-11-25T12:25:32.461Z,88.40
2018-11-25T12:28:01.713Z,88.00
2018-11-25T12:30:31.018Z,88.00
2018-11-25T12:33:00.327Z,89.20
2018-11-25T12:35:29.599Z,89.00
2018-11-25T12:37:58.893Z,89.10
2018-11-25T12:40:28.199Z,89.50
2018-11-25T12:42:58.639Z,89.20
2018-11-25T12:45:27.961Z,89.20
2018-11-25T12:47:57.235Z,89.50
2018-11-25T12:50:27.321Z,90.50
2018-11-25T12:52:56.662Z,90.10
2018-11-25T12:55:27.961Z,90.20
2018-11-25T12:57:57.945Z,90.00
2018-11-25T13:00:36.533Z,90.10
2018-11-25T13:03:06.751Z,90.10
2018-11-25T13:05:36.245Z,90.20
2018-11-25T13:08:05.646Z,90.20
2018-11-25T13:10:35.042Z,90.40
2018-11-25T13:13:04.542Z,90.50
2018-11-25T13:15:33.913Z,90.70
2018-11-25T13:18:03.536Z,90.60
2018-11-25T13:20:32.910Z,90.50
2018-11-25T13:23:02.306Z,90.50
2018-11-25T13:25:31.762Z,90.60
2018-11-25T13:28:01.056Z,90.70
2018-11-25T13:30:31.885Z,90.90
2018-11-25T13:33:02.410Z,90.90
2018-11-25T13:35:33.359Z,91.00
2018-11-25T13:38:02.962Z,90.90
2018-11-25T13:40:32.342Z,90.90
2018-11-25T13:43:01.590Z,91.00
2018-11-25T13:45:30.884Z,91.30
2018-11-25T13:48:00.259Z,91.60
2018-11-25T13:50:29.600Z,91.50
2018-11-25T13:52:58.932Z,91.50
2018-11-25T13:55:29.106Z,91.50
2018-11-25T13:57:58.401Z,91.50
2018-11-25T14:00:30.744Z,91.30
2018-11-25T14:03:00.088Z,91.30
2018-11-25T14:05:29.357Z,91.30
2018-11-25T14:07:58.613Z,91.30
2018-11-25T14:10:31.605Z,91.30
2018-11-25T14:13:01.034Z,91.00
2018-11-25T14:15:30.325Z,90.80
2018-11-25T14:17:59.663Z,90.70
2018-11-25T14:20:28.985Z,90.60
2018-11-25T14:22:58.275Z,90.30
2018-11-25T14:25:28.198Z,89.80
2018-11-25T14:27:59.650Z,89.90
2018-11-25T14:30:30.265Z,89.30
2018-11-25T14:32:59.553Z,89.10
2018-11-25T14:35:28.956Z,88.60
2018-11-25T14:37:58.282Z,88.40
2018-11-25T14:40:27.597Z,88.60
2018-11-25T14:42:56.874Z,89.20
2018-11-25T14:45:26.158Z,89.00
2018-11-25T14:47:55.818Z,89.30
2018-11-25T14:50:26.039Z,89.30
2018-11-25T14:52:55.813Z,89.50
2018-11-25T14:55:32.758Z,89.40
2018-11-25T14:58:02.909Z,89.50
2018-11-25T15:00:32.513Z,89.20
2018-11-25T15:03:03.401Z,89.20
2018-11-25T15:05:40.486Z,89.30
2018-11-25T15:08:11.474Z,89.40
2018-11-25T15:10:41.209Z,89.40
2018-11-25T15:13:11.137Z,89.40
2018-11-25T15:15:42.182Z,89.30
2018-11-25T15:18:12.202Z,89.40
2018-11-25T15:20:41.940Z,89.70
2018-11-25T15:23:13.661Z,89.70
2018-11-25T15:25:47.750Z,90.00
2018-11-25T15:28:17.344Z,90.00
2018-11-25T15:30:46.874Z,89.60
2018-11-25T15:33:16.291Z,89.10
2018-11-25T15:35:45.816Z,88.90
2018-11-25T15:38:15.501Z,89.10
2018-11-25T15:40:45.619Z,89.70
2018-11-25T15:43:15.305Z,90.00
2018-11-25T15:45:44.910Z,90.20
2018-11-25T15:48:20.420Z,90.30
2018-11-25T15:50:50.120Z,90.30
2018-11-25T15:53:19.599Z,90.20
2018-11-25T15:55:50.902Z,89.70
2018-11-25T15:58:20.481Z,89.50
2018-11-25T16:00:50.228Z,89.30
2018-11-25T16:03:19.725Z,89.40
2018-11-25T16:05:55.496Z,89.30
2018-11-25T16:08:25.075Z,89.30
2018-11-25T16:10:57.263Z,89.20
2018-11-25T16:13:27.875Z,89.10
2018-11-25T16:16:00.273Z,89.10
2018-11-25T16:18:30.035Z,89.70
2018-11-25T16:21:00.583Z,89.60
2018-11-25T16:23:30.170Z,89.20
2018-11-25T16:26:03.291Z,89.20
2018-11-25T16:28:40.200Z,89.30
2018-11-25T16:31:10.278Z,89.50
2018-11-25T16:33:40.061Z,90.10
2018-11-25T16:36:09.607Z,89.70
2018-11-25T16:38:39.073Z,89.70
2018-11-25T16:41:08.429Z,89.60
2018-11-25T16:43:37.757Z,89.60
2018-11-25T16:46:07.124Z,89.70
2018-11-25T16:48:36.422Z,89.90
2018-11-25T16:51:05.783Z,90.00
2018-11-25T16:53:35.081Z,90.10
2018-11-25T16:56:04.521Z,90.20
2018-11-25T16:58:33.906Z,90.30
2018-11-25T17:01:09.827Z,90.40
2018-11-25T17:03:32.932Z,90.40
2018-11-25T17:06:02.502Z,90.40
2018-11-25T17:08:35.479Z,90.30
2018-11-25T17:11:05.033Z,90.30
2018-11-25T17:13:35.500Z,90.30
2018-11-25T17:16:05.029Z,90.30
2018-11-25T17:18:37.050Z,90.30
2018-11-25T17:21:09.428Z,90.50
2018-11-25T17:23:38.839Z,90.60
2018-11-25T17:26:08.105Z,90.70
2018-11-25T17:28:37.367Z,91.00
2018-11-25T17:31:08.015Z,91.10
2018-11-25T17:33:37.409Z,91.30
2018-11-25T17:36:06.851Z,91.30
2018-11-25T17:38:36.499Z,91.30
2018-11-25T17:41:06.261Z,91.20
2018-11-25T17:43:36.132Z,91.10
2018-11-25T17:46:05.787Z,91.20
2018-11-25T17:48:35.265Z,91.30
2018-11-25T17:51:04.792Z,91.40
2018-11-25T17:53:34.313Z,91.60
2018-11-25T17:56:04.407Z,91.90
2018-11-25T17:58:33.928Z,92.60
2018-11-25T18:01:08.267Z,92.70
2018-11-25T18:03:38.679Z,93.10
2018-11-25T18:06:10.171Z,93.20
2018-11-25T18:08:39.926Z,93.10
2018-11-25T18:11:09.361Z,93.30
2018-11-25T18:13:43.238Z,93.30
2018-11-25T18:16:13.085Z,93.30
2018-11-25T18:18:47.572Z,93.10
2018-11-25T18:21:19.923Z,93.00
2018-11-25T18:23:49.427Z,92.70
2018-11-25T18:26:20.289Z,92.60
2018-11-25T18:28:49.892Z,92.60
2018-11-25T18:31:19.323Z,92.50
2018-11-25T18:33:48.923Z,92.40
2018-11-25T18:36:18.352Z,92.40
2018-11-25T18:38:47.794Z,92.40
2018-11-25T18:41:17.138Z,92.20
2018-11-25T18:43:46.462Z,92.20
2018-11-25T18:46:15.755Z,92.20
2018-11-25T18:48:47.747Z,92.20
2018-11-25T18:51:17.066Z,92.20
2018-11-25T18:53:48.417Z,92.20
2018-11-25T18:56:16.767Z,92.20
2018-11-25T18:58:46.129Z,92.50
2018-11-25T19:16:53.025Z,92.40
2018-11-25T19:19:22.491Z,92.90
2018-11-25T19:21:51.899Z,93.10
2018-11-25T19:24:21.184Z,92.80
2018-11-25T19:26:50.481Z,92.50
2018-11-25T19:29:19.916Z,92.40
2018-11-25T19:31:49.367Z,92.20
2018-11-25T19:34:18.775Z,92.10
2018-11-25T19:36:48.054Z,92.10
2018-11-25T19:39:17.629Z,92.20
2018-11-25T19:41:48.054Z,92.30
2018-11-25T19:44:17.535Z,92.90
2018-11-25T19:46:46.912Z,92.80
2018-11-25T19:49:21.642Z,92.70
2018-11-25T19:51:51.164Z,91.70
2018-11-25T19:54:20.573Z,91.50
2018-11-25T19:56:50.188Z,91.00
2018-11-25T19:59:19.668Z,90.90
2018-11-25T20:01:49.171Z,90.60
2018-11-25T20:04:18.543Z,90.90
2018-11-25T20:06:48.101Z,90.70
2018-11-25T20:09:17.643Z,90.70
2018-11-25T20:11:46.990Z,90.50
2018-11-25T20:14:16.289Z,88.80
2018-11-25T20:16:50.720Z,89.60
2018-11-25T20:19:20.050Z,90.00
2018-11-25T20:21:54.474Z,89.40
2018-11-25T20:24:24.324Z,88.90
2018-11-25T20:26:58.802Z,88.20
2018-11-25T20:29:28.135Z,88.00
2018-11-25T20:32:02.351Z,88.50
2018-11-25T20:34:31.658Z,87.30
2018-11-25T20:37:01.066Z,87.80
2018-11-25T20:39:30.858Z,88.60
2018-11-25T20:42:00.453Z,88.00
2018-11-25T20:44:29.783Z,87.30
2018-11-25T20:47:06.946Z,87.90
2018-11-25T20:49:36.728Z,87.10
2018-11-25T20:52:11.238Z,87.00
2018-11-25T20:54:40.613Z,86.30
2018-11-25T20:57:09.980Z,85.40
2018-11-25T20:59:39.281Z,84.80
2018-11-25T21:02:08.707Z,84.70
2018-11-25T21:04:37.990Z,85.30
2018-11-25T21:07:07.314Z,85.60
2018-11-25T21:09:36.666Z,85.20
2018-11-25T21:12:05.949Z,85.30
2018-11-25T21:14:35.178Z,86.00
2018-11-25T21:17:04.563Z,83.60
2018-11-25T21:19:33.806Z,83.90
2018-11-25T21:22:03.074Z,85.70
2018-11-25T21:24:32.437Z,87.40
2018-11-25T21:27:01.912Z,88.60
2018-11-25T21:29:31.262Z,89.50
2018-11-25T21:32:00.556Z,90.00
2018-11-25T21:34:29.924Z,89.90
2018-11-25T21:37:01.157Z,89.80
2018-11-25T21:39:30.428Z,87.80
2018-11-25T21:41:59.720Z,85.20
2018-11-25T21:44:28.965Z,85.00
2018-11-25T21:46:58.378Z,82.50
2018-11-25T21:49:27.807Z,81.40
2018-11-25T21:51:57.172Z,79.80
2018-11-25T21:54:26.489Z,80.00
2018-11-25T21:56:55.870Z,81.10
2018-11-25T21:59:25.222Z,81.20
2018-11-25T22:01:54.646Z,81.00
2018-11-25T22:04:23.933Z,80.70
2018-11-25T22:06:53.982Z,80.70
2018-11-25T22:09:23.249Z,80.20
2018-11-25T22:11:52.633Z,79.20
2018-11-25T22:14:21.937Z,78.80
2018-11-25T22:16:52.141Z,79.00
2018-11-25T22:19:21.491Z,79.20
2018-11-25T22:21:51.002Z,79.80
2018-11-25T22:24:20.425Z,78.70
2018-11-25T22:26:50.059Z,80.40
2018-11-25T22:29:19.398Z,79.60
2018-11-25T22:31:48.676Z,80.70
2018-11-25T22:34:18.025Z,81.60
2018-11-25T22:36:47.297Z,82.30
2018-11-25T22:39:16.641Z,82.50
2018-11-25T22:41:46.033Z,83.40
2018-11-25T22:44:15.356Z,84.20
2018-11-25T22:46:44.618Z,84.80
2018-11-25T22:49:14.083Z,85.60
2018-11-25T22:51:43.473Z,85.90
2018-11-25T22:54:12.818Z,86.30
2018-11-25T22:56:42.144Z,86.40
2018-11-25T22:59:11.436Z,86.10
2018-11-25T23:01:40.769Z,86.10
2018-11-25T23:05:24.227Z,86.70
2018-11-25T23:07:54.380Z,87.50
2018-11-25T23:10:23.774Z,88.50
2018-11-25T23:12:53.342Z,88.50
2018-11-25T23:15:23.370Z,88.30
2018-11-25T23:17:53.025Z,88.40
2018-11-25T23:20:22.534Z,88.40
2018-11-25T23:22:51.967Z,88.00
2018-11-25T23:25:21.483Z,87.60
2018-11-25T23:27:50.924Z,88.20
2018-11-25T23:30:20.264Z,89.10
2018-11-25T23:32:49.566Z,90.00
2018-11-25T23:35:21.614Z,90.10
2018-11-25T23:37:50.958Z,89.70
2018-11-25T23:40:20.281Z,90.00
2018-11-25T23:42:49.685Z,90.20
2018-11-25T23:45:18.985Z,90.80
2018-11-25T23:47:48.371Z,91.10
2018-11-25T23:50:17.706Z,91.50
2018-11-25T23:52:48.782Z,91.90
2018-11-25T23:55:18.104Z,92.50
2018-11-25T23:57:47.458Z,93.20
